createdAt,value
2022-07-29T04:03:19.362Z,3.87
2022-07-29T04:06:08.669Z,4.27
2022-07-29T04:08:55.703Z,3.87
2022-07-29T04:12:02.475Z,3.83
2022-07-29T04:14:51.227Z,3.93
2022-07-29T04:17:37.987Z,4.20
2022-07-29T04:20:26.852Z,3.90
2022-07-29T04:23:13.928Z,3.80
2022-07-29T04:26:02.093Z,4.33
2022-07-29T04:28:49.206Z,4.20
2022-07-29T04:31:36.146Z,3.87
2022-07-29T04:34:23.223Z,3.90
2022-07-29T04:37:16.904Z,4.20
2022-07-29T04:40:04.392Z,3.87
2022-07-29T04:42:51.330Z,4.27
2022-07-29T04:45:38.132Z,4.33
2022-07-29T04:48:28.678Z,4.23
2022-07-29T04:51:16.491Z,4.40
2022-07-29T04:54:04.852Z,4.17
2022-07-29T04:56:52.153Z,4.30
2022-07-29T04:59:39.997Z,3.93
2022-07-29T05:02:26.970Z,4.27
2022-07-29T05:05:15.005Z,4.40
2022-07-29T05:08:02.239Z,4.20
2022-07-29T05:10:50.854Z,5.33
2022-07-29T05:13:46.312Z,4.80
2022-07-29T05:16:34.571Z,4.27
2022-07-29T05:19:21.838Z,4.37
2022-07-29T05:22:08.868Z,4.50
2022-07-29T05:24:56.438Z,4.70
2022-07-29T05:27:44.705Z,4.37
2022-07-29T05:30:32.578Z,4.80
2022-07-29T05:33:34.664Z,4.83
2022-07-29T05:36:24.324Z,4.87
2022-07-29T05:39:11.206Z,4.57
2022-07-29T05:41:58.065Z,4.05
2022-07-29T05:44:46.638Z,4.32
2022-07-29T05:47:33.516Z,4.70
2022-07-29T05:50:21.430Z,4.45
2022-07-29T05:53:19.967Z,4.28
2022-07-29T05:56:08.370Z,3.90
2022-07-29T05:58:55.774Z,3.80
2022-07-29T06:01:44.506Z,4.35
2022-07-29T06:04:31.720Z,3.97
2022-07-29T06:07:18.758Z,4.13
2022-07-29T06:10:06.609Z,4.15
2022-07-29T06:12:54.091Z,4.40
2022-07-29T06:15:41.959Z,4.32
2022-07-29T06:18:30.376Z,3.75
2022-07-29T06:21:17.870Z,3.92
2022-07-29T06:24:05.201Z,4.38
2022-07-29T06:26:52.297Z,4.25
2022-07-29T06:29:40.529Z,3.67
2022-07-29T06:32:27.596Z,4.43
2022-07-29T06:38:31.392Z,4.15
2022-07-29T06:41:21.153Z,4.15
2022-07-29T06:44:08.590Z,3.92
2022-07-29T06:46:55.901Z,4.07
2022-07-29T06:49:43.296Z,3.92
2022-07-29T06:52:31.590Z,3.50
2022-07-29T06:55:25.134Z,3.50
2022-07-29T06:58:13.007Z,3.58
2022-07-29T07:01:01.178Z,4.00
2022-07-29T07:03:48.918Z,3.35
2022-07-29T07:06:36.338Z,3.40
2022-07-29T07:09:24.566Z,3.45
2022-07-29T07:12:26.948Z,3.95
2022-07-29T07:15:13.827Z,4.13
2022-07-29T07:18:00.825Z,3.47
2022-07-29T07:20:48.745Z,3.53
2022-07-29T07:23:36.150Z,4.10
2022-07-29T07:26:24.688Z,3.00
2022-07-29T07:29:12.550Z,3.75
2022-07-29T07:32:01.240Z,3.45
2022-07-29T07:34:48.532Z,3.92
2022-07-29T07:37:36.629Z,3.60
2022-07-29T07:40:23.795Z,3.72
2022-07-29T07:43:15.278Z,3.17
2022-07-29T07:46:02.545Z,4.22
2022-07-29T07:48:50.126Z,3.33
2022-07-29T07:51:37.174Z,3.40
2022-07-29T07:54:24.386Z,3.50
2022-07-29T07:57:12.231Z,3.30
2022-07-29T08:00:00.749Z,3.55
2022-07-29T08:02:48.476Z,3.00
2022-07-29T08:05:37.257Z,3.47
2022-07-29T08:08:26.589Z,3.10
2022-07-29T08:11:13.318Z,3.28
2022-07-29T08:14:02.326Z,2.92
2022-07-29T08:16:50.843Z,2.30
2022-07-29T08:19:38.526Z,2.15
2022-07-29T08:22:26.314Z,2.35
2022-07-29T08:25:13.493Z,1.90
2022-07-29T08:28:04.508Z,1.98
2022-07-29T08:30:51.745Z,2.33
2022-07-29T08:33:40.901Z,2.35
2022-07-29T08:36:27.672Z,2.00
2022-07-29T08:39:14.968Z,1.90
2022-07-29T08:42:02.229Z,2.33
2022-07-29T08:44:49.774Z,1.98
2022-07-29T08:47:37.898Z,2.00
2022-07-29T08:50:26.543Z,2.50
2022-07-29T08:53:15.152Z,2.13
2022-07-29T08:56:04.098Z,2.00
2022-07-29T08:58:52.491Z,2.15
2022-07-29T09:01:42.856Z,2.30
2022-07-29T09:04:36.296Z,2.10
2022-07-29T09:07:24.790Z,2.20
2022-07-29T09:10:22.261Z,2.40
2022-07-29T09:13:09.297Z,2.10
2022-07-29T09:15:56.422Z,2.60
2022-07-29T09:18:45.015Z,2.60
2022-07-29T09:22:03.204Z,2.63
2022-07-29T09:24:52.355Z,2.53
2022-07-29T09:27:39.764Z,2.30
2022-07-29T09:30:31.444Z,2.30
2022-07-29T09:33:19.024Z,2.58
2022-07-29T09:36:08.533Z,2.25
2022-07-29T09:39:01.413Z,2.33
2022-07-29T09:41:53.891Z,2.50
2022-07-29T09:44:46.731Z,2.10
2022-07-29T09:47:46.039Z,1.98
2022-07-29T09:50:41.367Z,2.20
2022-07-29T09:53:36.676Z,2.10
2022-07-29T09:56:40.889Z,2.40
2022-07-29T09:59:29.338Z,1.90
2022-07-29T10:02:23.669Z,2.05
2022-07-29T10:05:20.654Z,2.17
2022-07-29T10:08:08.652Z,2.22
2022-07-29T10:11:12.424Z,2.35
2022-07-29T10:13:59.546Z,2.25
2022-07-29T10:16:48.400Z,2.00
2022-07-29T10:19:36.576Z,2.45
2022-07-29T10:22:50.659Z,2.40
2022-07-29T10:25:32.292Z,2.40
2022-07-29T10:28:19.692Z,2.40
2022-07-29T10:31:10.218Z,2.45
2022-07-29T10:34:07.404Z,2.40
2022-07-29T10:37:03.827Z,1.98
2022-07-29T10:39:59.791Z,2.47
2022-07-29T10:42:47.780Z,2.20
2022-07-29T10:45:35.425Z,3.40
2022-07-29T10:48:23.507Z,2.30
2022-07-29T10:51:12.713Z,2.00
2022-07-29T10:54:00.851Z,2.35
2022-07-29T10:56:48.210Z,2.40
2022-07-29T11:02:53.036Z,2.40
2022-07-29T11:05:56.346Z,2.72
2022-07-29T11:09:08.441Z,2.60
2022-07-29T11:11:56.617Z,2.70
2022-07-29T11:15:01.541Z,2.50
2022-07-29T11:18:15.234Z,2.92
2022-07-29T11:21:05.031Z,2.55
2022-07-29T11:24:14.903Z,2.60
2022-07-29T11:30:52.392Z,3.10
2022-07-29T11:33:56.114Z,2.60
2022-07-29T11:37:13.895Z,2.83
2022-07-29T11:40:23.056Z,2.75
2022-07-29T11:43:10.134Z,2.88
2022-07-29T11:46:02.191Z,3.03
2022-07-29T11:48:52.056Z,3.08
2022-07-29T11:52:49.442Z,2.90
2022-07-29T11:55:51.763Z,3.03
2022-07-29T11:58:39.997Z,3.05
2022-07-29T12:01:28.140Z,2.90
2022-07-29T12:04:15.885Z,2.42
2022-07-29T12:09:56.985Z,3.03
2022-07-29T12:12:53.171Z,2.70
2022-07-29T12:15:46.912Z,3.45
2022-07-29T12:18:34.554Z,2.63
2022-07-29T12:21:25.727Z,2.50
2022-07-29T12:24:13.073Z,2.92
2022-07-29T12:27:02.407Z,3.15
2022-07-29T12:30:00.808Z,2.97
2022-07-29T12:32:49.215Z,2.67
2022-07-29T12:35:36.624Z,2.35
2022-07-29T12:38:23.916Z,2.60
2022-07-29T12:41:11.294Z,2.70
2022-07-29T12:43:58.917Z,2.67
2022-07-29T12:46:47.701Z,2.78
2022-07-29T12:49:38.074Z,3.17
2022-07-29T12:52:33.363Z,3.15
2022-07-29T12:59:41.164Z,2.90
2022-07-29T13:02:30.155Z,2.85
2022-07-29T13:05:17.492Z,2.78
2022-07-29T13:08:20.371Z,2.63
2022-07-29T13:11:09.965Z,3.00
2022-07-29T13:14:05.625Z,2.70
2022-07-29T13:17:05.628Z,2.63
2022-07-29T13:19:55.681Z,2.70
2022-07-29T13:22:44.607Z,2.97
2022-07-29T13:26:48.314Z,3.03
2022-07-29T13:29:35.381Z,2.67
2022-07-29T13:32:27.924Z,2.78
2022-07-29T13:35:17.749Z,2.70
2022-07-29T13:38:05.218Z,2.75
2022-07-29T13:40:52.435Z,2.70
2022-07-29T13:43:39.595Z,2.95
2022-07-29T13:46:26.593Z,3.30
2022-07-29T13:49:13.658Z,2.78
2022-07-29T13:52:02.265Z,2.92
2022-07-29T13:54:50.136Z,2.65
2022-07-29T13:57:37.663Z,3.20
2022-07-29T14:00:24.766Z,3.22
2022-07-29T14:03:12.482Z,2.72
2022-07-29T14:06:01.421Z,2.72
2022-07-29T14:08:49.983Z,2.50
2022-07-29T14:11:39.371Z,2.40
2022-07-29T14:14:26.639Z,2.50
2022-07-29T14:17:19.855Z,2.45
2022-07-29T14:20:08.132Z,2.47
2022-07-29T14:22:55.153Z,2.38
2022-07-29T14:25:44.597Z,2.28
2022-07-29T14:28:32.346Z,2.63
2022-07-29T14:31:19.600Z,2.20
2022-07-29T14:34:06.742Z,2.17
2022-07-29T14:36:56.526Z,2.50
2022-07-29T14:39:43.581Z,2.42
2022-07-29T14:42:32.814Z,2.47
2022-07-29T14:45:19.911Z,2.20
2022-07-29T14:48:07.596Z,2.40
2022-07-29T14:50:56.035Z,2.30
2022-07-29T14:53:42.999Z,2.13
2022-07-29T14:56:36.933Z,2.72
2022-07-29T14:59:26.302Z,2.20
2022-07-29T15:02:14.041Z,2.30
2022-07-29T15:05:01.213Z,2.08
2022-07-29T15:07:48.391Z,2.30
2022-07-29T15:10:35.347Z,2.55
2022-07-29T15:13:22.344Z,2.53
2022-07-29T15:16:11.302Z,2.17
2022-07-29T15:19:01.085Z,2.38
2022-07-29T15:21:49.319Z,2.25
2022-07-29T15:24:37.791Z,2.47
2022-07-29T15:27:25.131Z,2.38
2022-07-29T15:30:49.867Z,2.80
2022-07-29T15:33:38.595Z,2.85
2022-07-29T15:36:51.014Z,2.50
2022-07-29T15:39:33.022Z,2.80
2022-07-29T15:42:20.170Z,2.22
2022-07-29T15:45:08.299Z,2.70
2022-07-29T15:47:55.880Z,2.63
2022-07-29T15:50:47.156Z,2.55
2022-07-29T15:53:35.398Z,2.47
2022-07-29T15:56:23.191Z,2.58
2022-07-29T15:59:10.408Z,3.03
2022-07-29T16:02:11.228Z,2.55
2022-07-29T16:04:58.166Z,2.60
2022-07-29T16:07:46.669Z,2.25
2022-07-29T16:10:33.670Z,2.50
2022-07-29T16:13:20.737Z,2.35
2022-07-29T16:16:09.068Z,2.40
2022-07-29T16:18:56.298Z,2.28
2022-07-29T16:21:43.229Z,2.45
2022-07-29T16:24:33.137Z,2.45
2022-07-29T16:27:24.756Z,2.30
2022-07-29T16:30:13.007Z,2.83
2022-07-29T16:32:59.790Z,2.25
2022-07-29T16:35:47.017Z,2.25
2022-07-29T16:38:35.258Z,2.10
2022-07-29T16:41:24.837Z,2.22
2022-07-29T16:44:11.734Z,2.20
2022-07-29T16:47:01.691Z,2.20
2022-07-29T16:49:49.159Z,2.13
2022-07-29T16:52:37.708Z,1.83
2022-07-29T16:55:25.359Z,1.95
2022-07-29T16:58:13.814Z,2.20
2022-07-29T17:01:00.994Z,2.05
2022-07-29T17:04:05.986Z,1.60
2022-07-29T17:06:53.155Z,1.73
2022-07-29T17:09:40.503Z,1.73
2022-07-29T17:12:27.895Z,1.83
2022-07-29T17:15:18.633Z,2.00
2022-07-29T17:18:12.371Z,1.80
2022-07-29T17:21:00.216Z,1.90
2022-07-29T17:23:47.195Z,1.80
2022-07-29T17:26:33.997Z,1.83
2022-07-29T17:29:21.385Z,1.50
2022-07-29T17:32:11.519Z,1.88
2022-07-29T17:34:58.812Z,1.90
2022-07-29T17:37:46.132Z,1.80
2022-07-29T17:40:33.582Z,1.70
2022-07-29T17:43:20.615Z,2.10
2022-07-29T17:46:08.099Z,1.60
2022-07-29T17:48:57.683Z,1.88
2022-07-29T17:51:44.997Z,1.80
2022-07-29T17:54:32.244Z,1.75
2022-07-29T17:57:19.327Z,1.80
2022-07-29T18:00:08.526Z,1.92
2022-07-29T18:02:56.044Z,1.88
2022-07-29T18:05:47.682Z,2.00
2022-07-29T18:08:35.092Z,1.80
2022-07-29T18:11:22.818Z,1.70
2022-07-29T18:14:10.432Z,2.00
2022-07-29T18:16:57.680Z,1.50
2022-07-29T18:19:48.298Z,1.77
2022-07-29T18:22:37.905Z,2.05
2022-07-29T18:25:25.809Z,1.67
2022-07-29T18:28:12.804Z,1.80
2022-07-29T18:31:00.775Z,1.60
2022-07-29T18:33:47.944Z,1.70
2022-07-29T18:36:35.010Z,1.90
2022-07-29T18:39:24.053Z,1.90
2022-07-29T18:42:11.382Z,2.15
2022-07-29T18:44:59.012Z,1.55
2022-07-29T18:47:47.575Z,1.88
2022-07-29T18:50:34.880Z,1.80
2022-07-29T18:53:21.689Z,2.03
2022-07-29T18:56:10.306Z,2.05
2022-07-29T18:58:57.514Z,1.98
2022-07-29T19:01:44.743Z,2.08
2022-07-29T19:04:31.849Z,1.90
2022-07-29T19:07:19.113Z,1.85
2022-07-29T19:10:07.144Z,1.80
2022-07-29T19:12:56.874Z,2.03
2022-07-29T19:15:44.441Z,1.83
2022-07-29T19:18:31.546Z,2.03
2022-07-29T19:21:19.301Z,2.00
2022-07-29T19:24:12.326Z,2.08
2022-07-29T19:27:02.172Z,2.20
2022-07-29T19:29:50.536Z,1.73
2022-07-29T19:32:38.955Z,2.10
2022-07-29T19:35:28.477Z,2.22
2022-07-29T19:38:16.040Z,1.90
2022-07-29T19:41:03.151Z,1.85
2022-07-29T19:43:53.107Z,1.90
2022-07-29T19:46:41.995Z,1.90
2022-07-29T19:49:29.417Z,2.00
2022-07-29T19:52:16.958Z,1.90
2022-07-29T19:55:07.538Z,1.80
2022-07-29T19:57:55.242Z,2.00
2022-07-29T20:00:42.190Z,1.83
2022-07-29T20:03:32.239Z,1.90
2022-07-29T20:06:19.878Z,1.90
2022-07-29T20:09:09.904Z,2.00
2022-07-29T20:12:08.091Z,1.90
2022-07-29T20:14:55.252Z,1.77
2022-07-29T20:17:43.164Z,2.10
2022-07-29T20:20:31.764Z,2.00
2022-07-29T20:23:19.622Z,2.03
2022-07-29T20:26:09.420Z,2.00
2022-07-29T20:28:56.940Z,2.30
2022-07-29T20:31:45.778Z,2.60
2022-07-29T20:34:41.465Z,2.90
2022-07-29T20:37:30.084Z,2.63
2022-07-29T20:40:17.063Z,2.17
2022-07-29T20:43:04.336Z,2.60
2022-07-29T20:45:51.674Z,2.80
2022-07-29T20:48:39.844Z,2.50
2022-07-29T20:51:27.445Z,2.10
2022-07-29T20:54:15.911Z,1.77
2022-07-29T20:57:03.199Z,2.27
2022-07-29T20:59:50.363Z,2.40
2022-07-29T21:02:37.922Z,2.00
2022-07-29T21:05:25.405Z,2.10
2022-07-29T21:08:13.719Z,2.30
2022-07-29T21:11:02.166Z,2.40
2022-07-29T21:13:49.423Z,2.30
2022-07-29T21:16:36.544Z,2.50
2022-07-29T21:19:23.447Z,2.50
2022-07-29T21:22:10.720Z,2.70
2022-07-29T21:24:57.990Z,2.30
2022-07-29T21:28:04.047Z,2.27
2022-07-29T21:30:51.000Z,2.30
2022-07-29T21:33:38.737Z,2.00
2022-07-29T21:36:47.761Z,2.10
2022-07-29T21:39:33.326Z,2.43
2022-07-29T21:46:51.812Z,2.47
2022-07-29T21:49:42.447Z,2.30
2022-07-29T21:52:29.496Z,2.40
2022-07-29T21:55:19.279Z,2.47
2022-07-29T21:58:06.914Z,2.67
